sensor_id;sensor_type;location;lat;lon;timestamp;P1;durP1;ratioP1;P2;durP2;ratioP2
12369;SDS011;6249;52.128;9.986;2023-05-07T00:01:19;48.07;;;27.97;;
12369;SDS011;6249;52.128;9.986;2023-05-07T00:04:41;48.43;;;29.10;;
12369;SDS011;6249;52.128;9.986;2023-05-07T00:08:01;46.80;;;26.90;;
12369;SDS011;6249;52.128;9.986;2023-05-07T00:11:22;48.27;;;28.33;;
12369;SDS011;6249;52.128;9.986;2023-05-07T00:14:43;49.37;;;28.10;;
12369;SDS011;6249;52.128;9.986;2023-05-07T00:18:03;51.77;;;30.70;;
12369;SDS011;6249;52.128;9.986;2023-05-07T00:21:24;48.83;;;28.00;;
12369;SDS011;6249;52.128;9.986;2023-05-07T00:24:50;52.23;;;29.40;;
12369;SDS011;6249;52.128;9.986;2023-05-07T00:28:13;47.07;;;27.30;;
12369;SDS011;6249;52.128;9.986;2023-05-07T00:31:36;55.63;;;30.43;;
12369;SDS011;6249;52.128;9.986;2023-05-07T00:34:59;46.90;;;30.10;;
12369;SDS011;6249;52.128;9.986;2023-05-07T00:38:20;52.13;;;31.60;;
12369;SDS011;6249;52.128;9.986;2023-05-07T00:41:40;49.10;;;28.07;;
12369;SDS011;6249;52.128;9.986;2023-05-07T00:45:01;50.63;;;30.43;;
12369;SDS011;6249;52.128;9.986;2023-05-07T00:48:22;52.23;;;30.07;;
12369;SDS011;6249;52.128;9.986;2023-05-07T00:51:46;57.97;;;31.00;;
12369;SDS011;6249;52.128;9.986;2023-05-07T00:55:07;54.07;;;30.87;;
12369;SDS011;6249;52.128;9.986;2023-05-07T00:58:28;49.63;;;29.00;;
12369;SDS011;6249;52.128;9.986;2023-05-07T01:01:49;58.53;;;30.87;;
12369;SDS011;6249;52.128;9.986;2023-05-07T01:05:10;53.20;;;30.40;;
12369;SDS011;6249;52.128;9.986;2023-05-07T01:08:38;55.90;;;30.17;;
12369;SDS011;6249;52.128;9.986;2023-05-07T01:12:02;48.37;;;28.47;;
12369;SDS011;6249;52.128;9.986;2023-05-07T01:15:24;49.20;;;26.97;;
12369;SDS011;6249;52.128;9.986;2023-05-07T01:18:44;48.80;;;27.27;;
12369;SDS011;6249;52.128;9.986;2023-05-07T01:22:09;52.10;;;29.60;;
12369;SDS011;6249;52.128;9.986;2023-05-07T01:25:36;43.87;;;26.90;;
12369;SDS011;6249;52.128;9.986;2023-05-07T01:28:56;52.53;;;27.80;;
12369;SDS011;6249;52.128;9.986;2023-05-07T01:32:17;50.10;;;25.93;;
12369;SDS011;6249;52.128;9.986;2023-05-07T01:35:42;47.43;;;26.23;;
12369;SDS011;6249;52.128;9.986;2023-05-07T01:39:08;46.67;;;26.20;;
12369;SDS011;6249;52.128;9.986;2023-05-07T01:42:30;48.73;;;25.93;;
12369;SDS011;6249;52.128;9.986;2023-05-07T01:45:56;48.97;;;25.73;;
12369;SDS011;6249;52.128;9.986;2023-05-07T01:49:18;38.73;;;22.63;;
12369;SDS011;6249;52.128;9.986;2023-05-07T01:52:42;39.93;;;23.33;;
12369;SDS011;6249;52.128;9.986;2023-05-07T01:56:04;42.97;;;24.03;;
12369;SDS011;6249;52.128;9.986;2023-05-07T01:59:25;39.13;;;23.37;;
12369;SDS011;6249;52.128;9.986;2023-05-07T02:02:46;36.60;;;21.83;;
12369;SDS011;6249;52.128;9.986;2023-05-07T02:06:06;37.83;;;21.27;;
12369;SDS011;6249;52.128;9.986;2023-05-07T02:09:27;37.83;;;20.80;;
12369;SDS011;6249;52.128;9.986;2023-05-07T02:12:48;37.33;;;21.70;;
12369;SDS011;6249;52.128;9.986;2023-05-07T02:16:08;37.33;;;21.93;;
12369;SDS011;6249;52.128;9.986;2023-05-07T02:19:29;33.80;;;20.47;;
12369;SDS011;6249;52.128;9.986;2023-05-07T02:22:51;30.97;;;19.47;;
12369;SDS011;6249;52.128;9.986;2023-05-07T02:26:12;41.70;;;20.90;;
12369;SDS011;6249;52.128;9.986;2023-05-07T02:29:35;40.20;;;22.37;;
12369;SDS011;6249;52.128;9.986;2023-05-07T02:32:58;34.53;;;19.70;;
12369;SDS011;6249;52.128;9.986;2023-05-07T02:36:18;30.87;;;18.77;;
12369;SDS011;6249;52.128;9.986;2023-05-07T02:39:39;29.73;;;18.20;;
12369;SDS011;6249;52.128;9.986;2023-05-07T02:43:02;32.90;;;17.90;;
12369;SDS011;6249;52.128;9.986;2023-05-07T02:46:25;25.87;;;16.63;;
12369;SDS011;6249;52.128;9.986;2023-05-07T02:49:48;26.60;;;16.53;;
12369;SDS011;6249;52.128;9.986;2023-05-07T02:53:09;26.93;;;17.10;;
12369;SDS011;6249;52.128;9.986;2023-05-07T02:56:29;29.13;;;17.80;;
12369;SDS011;6249;52.128;9.986;2023-05-07T02:59:50;30.50;;;17.10;;
12369;SDS011;6249;52.128;9.986;2023-05-07T03:03:11;34.77;;;18.60;;
12369;SDS011;6249;52.128;9.986;2023-05-07T03:06:34;26.90;;;17.27;;
12369;SDS011;6249;52.128;9.986;2023-05-07T03:09:54;29.43;;;17.70;;
12369;SDS011;6249;52.128;9.986;2023-05-07T03:13:17;32.10;;;19.13;;
12369;SDS011;6249;52.128;9.986;2023-05-07T03:16:38;28.40;;;19.00;;
12369;SDS011;6249;52.128;9.986;2023-05-07T03:20:03;28.93;;;18.60;;
12369;SDS011;6249;52.128;9.986;2023-05-07T03:23:24;29.20;;;18.87;;
12369;SDS011;6249;52.128;9.986;2023-05-07T03:26:45;31.97;;;19.60;;
12369;SDS011;6249;52.128;9.986;2023-05-07T03:30:08;31.50;;;18.53;;
12369;SDS011;6249;52.128;9.986;2023-05-07T03:33:29;31.90;;;18.57;;
12369;SDS011;6249;52.128;9.986;2023-05-07T03:36:50;25.20;;;16.23;;
12369;SDS011;6249;52.128;9.986;2023-05-07T03:40:11;32.57;;;18.80;;
12369;SDS011;6249;52.128;9.986;2023-05-07T03:43:32;32.10;;;18.13;;
12369;SDS011;6249;52.128;9.986;2023-05-07T03:46:54;26.63;;;16.80;;
12369;SDS011;6249;52.128;9.986;2023-05-07T03:50:15;28.33;;;17.37;;
12369;SDS011;6249;52.128;9.986;2023-05-07T03:53:36;26.30;;;17.17;;
12369;SDS011;6249;52.128;9.986;2023-05-07T03:56:56;26.83;;;15.90;;
12369;SDS011;6249;52.128;9.986;2023-05-07T04:00:17;26.77;;;17.20;;
12369;SDS011;6249;52.128;9.986;2023-05-07T04:03:40;29.73;;;15.60;;
12369;SDS011;6249;52.128;9.986;2023-05-07T04:07:00;26.87;;;16.13;;
12369;SDS011;6249;52.128;9.986;2023-05-07T04:10:23;27.83;;;16.37;;
12369;SDS011;6249;52.128;9.986;2023-05-07T04:13:44;26.23;;;15.57;;
12369;SDS011;6249;52.128;9.986;2023-05-07T04:17:04;26.30;;;16.43;;
12369;SDS011;6249;52.128;9.986;2023-05-07T04:20:27;25.20;;;16.60;;
12369;SDS011;6249;52.128;9.986;2023-05-07T04:23:50;28.37;;;16.43;;
12369;SDS011;6249;52.128;9.986;2023-05-07T04:27:10;30.97;;;16.23;;
12369;SDS011;6249;52.128;9.986;2023-05-07T04:30:33;28.77;;;17.43;;
12369;SDS011;6249;52.128;9.986;2023-05-07T04:33:53;27.37;;;15.83;;
12369;SDS011;6249;52.128;9.986;2023-05-07T04:37:19;27.90;;;16.57;;
12369;SDS011;6249;52.128;9.986;2023-05-07T04:40:39;25.80;;;15.90;;
12369;SDS011;6249;52.128;9.986;2023-05-07T04:44:01;28.80;;;17.00;;
12369;SDS011;6249;52.128;9.986;2023-05-07T04:47:24;26.80;;;16.33;;
12369;SDS011;6249;52.128;9.986;2023-05-07T04:50:47;25.37;;;15.97;;
12369;SDS011;6249;52.128;9.986;2023-05-07T04:54:08;27.23;;;15.77;;
12369;SDS011;6249;52.128;9.986;2023-05-07T04:57:31;23.30;;;16.00;;
12369;SDS011;6249;52.128;9.986;2023-05-07T05:00:51;25.77;;;15.70;;
12369;SDS011;6249;52.128;9.986;2023-05-07T05:04:12;25.30;;;15.53;;
12369;SDS011;6249;52.128;9.986;2023-05-07T05:07:35;28.23;;;16.17;;
12369;SDS011;6249;52.128;9.986;2023-05-07T05:10:56;26.30;;;16.67;;
12369;SDS011;6249;52.128;9.986;2023-05-07T05:14:19;23.20;;;15.30;;
12369;SDS011;6249;52.128;9.986;2023-05-07T05:17:40;23.77;;;15.30;;
12369;SDS011;6249;52.128;9.986;2023-05-07T05:21:00;24.37;;;14.70;;
12369;SDS011;6249;52.128;9.986;2023-05-07T05:24:28;22.47;;;14.60;;
12369;SDS011;6249;52.128;9.986;2023-05-07T05:27:49;27.60;;;15.57;;
12369;SDS011;6249;52.128;9.986;2023-05-07T05:31:12;23.03;;;15.67;;
12369;SDS011;6249;52.128;9.986;2023-05-07T05:34:34;22.80;;;13.90;;
12369;SDS011;6249;52.128;9.986;2023-05-07T05:37:54;19.27;;;12.90;;
12369;SDS011;6249;52.128;9.986;2023-05-07T05:41:17;26.57;;;14.20;;
12369;SDS011;6249;52.128;9.986;2023-05-07T05:44:37;22.23;;;13.80;;
12369;SDS011;6249;52.128;9.986;2023-05-07T05:47:58;21.20;;;13.30;;
12369;SDS011;6249;52.128;9.986;2023-05-07T05:51:20;21.30;;;12.33;;
12369;SDS011;6249;52.128;9.986;2023-05-07T05:54:41;22.57;;;13.50;;
12369;SDS011;6249;52.128;9.986;2023-05-07T05:58:01;21.87;;;13.40;;
12369;SDS011;6249;52.128;9.986;2023-05-07T06:01:27;22.80;;;13.87;;
12369;SDS011;6249;52.128;9.986;2023-05-07T06:04:47;21.37;;;13.23;;
12369;SDS011;6249;52.128;9.986;2023-05-07T06:08:08;24.00;;;13.10;;
12369;SDS011;6249;52.128;9.986;2023-05-07T06:11:29;22.33;;;12.37;;
12369;SDS011;6249;52.128;9.986;2023-05-07T06:14:52;17.00;;;11.50;;
12369;SDS011;6249;52.128;9.986;2023-05-07T06:18:14;17.43;;;11.73;;
12369;SDS011;6249;52.128;9.986;2023-05-07T06:21:35;20.07;;;12.43;;
12369;SDS011;6249;52.128;9.986;2023-05-07T06:24:56;16.63;;;11.20;;
12369;SDS011;6249;52.128;9.986;2023-05-07T06:28:19;18.23;;;12.10;;
12369;SDS011;6249;52.128;9.986;2023-05-07T06:31:41;15.80;;;10.87;;
12369;SDS011;6249;52.128;9.986;2023-05-07T06:35:02;18.40;;;10.53;;
12369;SDS011;6249;52.128;9.986;2023-05-07T06:38:23;19.83;;;9.93;;
12369;SDS011;6249;52.128;9.986;2023-05-07T06:41:46;16.03;;;9.77;;
12369;SDS011;6249;52.128;9.986;2023-05-07T06:45:07;27.00;;;11.37;;
12369;SDS011;6249;52.128;9.986;2023-05-07T06:48:30;15.30;;;8.97;;
12369;SDS011;6249;52.128;9.986;2023-05-07T06:51:51;15.10;;;9.97;;
12369;SDS011;6249;52.128;9.986;2023-05-07T06:55:12;15.37;;;9.17;;
12369;SDS011;6249;52.128;9.986;2023-05-07T06:58:32;15.07;;;9.70;;
12369;SDS011;6249;52.128;9.986;2023-05-07T07:01:55;14.50;;;8.93;;
12369;SDS011;6249;52.128;9.986;2023-05-07T07:05:18;13.23;;;9.33;;
12369;SDS011;6249;52.128;9.986;2023-05-07T07:08:41;14.40;;;9.57;;
12369;SDS011;6249;52.128;9.986;2023-05-07T07:12:04;14.77;;;9.73;;
12369;SDS011;6249;52.128;9.986;2023-05-07T07:15:25;13.50;;;9.40;;
12369;SDS011;6249;52.128;9.986;2023-05-07T07:18:48;17.33;;;9.57;;
12369;SDS011;6249;52.128;9.986;2023-05-07T07:22:11;13.20;;;9.30;;
12369;SDS011;6249;52.128;9.986;2023-05-07T07:25:31;11.40;;;7.43;;
12369;SDS011;6249;52.128;9.986;2023-05-07T07:28:52;13.10;;;8.97;;
12369;SDS011;6249;52.128;9.986;2023-05-07T07:32:13;13.73;;;10.07;;
12369;SDS011;6249;52.128;9.986;2023-05-07T07:35:33;16.57;;;9.60;;
12369;SDS011;6249;52.128;9.986;2023-05-07T07:38:55;20.93;;;10.03;;
12369;SDS011;6249;52.128;9.986;2023-05-07T07:42:15;12.77;;;9.10;;
12369;SDS011;6249;52.128;9.986;2023-05-07T07:45:38;14.80;;;10.37;;
12369;SDS011;6249;52.128;9.986;2023-05-07T07:49:02;14.50;;;10.90;;
12369;SDS011;6249;52.128;9.986;2023-05-07T07:52:22;15.87;;;11.33;;
12369;SDS011;6249;52.128;9.986;2023-05-07T07:55:43;16.23;;;11.73;;
12369;SDS011;6249;52.128;9.986;2023-05-07T07:59:04;18.00;;;11.97;;
12369;SDS011;6249;52.128;9.986;2023-05-07T08:02:25;17.73;;;12.77;;
12369;SDS011;6249;52.128;9.986;2023-05-07T08:05:45;17.73;;;11.67;;
12369;SDS011;6249;52.128;9.986;2023-05-07T08:09:06;15.97;;;11.33;;
12369;SDS011;6249;52.128;9.986;2023-05-07T08:12:26;18.07;;;11.93;;
12369;SDS011;6249;52.128;9.986;2023-05-07T08:15:47;17.87;;;13.13;;
12369;SDS011;6249;52.128;9.986;2023-05-07T08:19:07;17.17;;;12.43;;
12369;SDS011;6249;52.128;9.986;2023-05-07T08:22:28;18.80;;;12.90;;
12369;SDS011;6249;52.128;9.986;2023-05-07T08:25:51;20.23;;;12.93;;
12369;SDS011;6249;52.128;9.986;2023-05-07T08:29:12;17.90;;;11.97;;
12369;SDS011;6249;52.128;9.986;2023-05-07T08:32:32;21.37;;;14.10;;
12369;SDS011;6249;52.128;9.986;2023-05-07T08:35:53;18.77;;;11.20;;
12369;SDS011;6249;52.128;9.986;2023-05-07T08:39:17;17.00;;;11.57;;
12369;SDS011;6249;52.128;9.986;2023-05-07T08:42:42;15.23;;;10.30;;
12369;SDS011;6249;52.128;9.986;2023-05-07T08:46:04;20.60;;;13.03;;
12369;SDS011;6249;52.128;9.986;2023-05-07T08:49:28;17.17;;;11.60;;
12369;SDS011;6249;52.128;9.986;2023-05-07T08:52:53;19.70;;;11.97;;
12369;SDS011;6249;52.128;9.986;2023-05-07T08:56:16;18.03;;;11.63;;
12369;SDS011;6249;52.128;9.986;2023-05-07T08:59:40;16.70;;;11.03;;
12369;SDS011;6249;52.128;9.986;2023-05-07T09:03:01;18.77;;;11.80;;
12369;SDS011;6249;52.128;9.986;2023-05-07T09:06:22;16.17;;;10.90;;
12369;SDS011;6249;52.128;9.986;2023-05-07T09:09:43;14.90;;;10.90;;
12369;SDS011;6249;52.128;9.986;2023-05-07T09:13:04;15.20;;;10.60;;
12369;SDS011;6249;52.128;9.986;2023-05-07T09:16:27;15.10;;;10.50;;
12369;SDS011;6249;52.128;9.986;2023-05-07T09:19:50;16.67;;;11.00;;
12369;SDS011;6249;52.128;9.986;2023-05-07T09:23:10;17.33;;;12.07;;
12369;SDS011;6249;52.128;9.986;2023-05-07T09:26:31;19.30;;;11.33;;
12369;SDS011;6249;52.128;9.986;2023-05-07T09:29:53;18.00;;;11.40;;
12369;SDS011;6249;52.128;9.986;2023-05-07T09:33:16;17.10;;;11.73;;
12369;SDS011;6249;52.128;9.986;2023-05-07T09:36:37;16.47;;;12.13;;
12369;SDS011;6249;52.128;9.986;2023-05-07T09:39:57;19.80;;;13.60;;
12369;SDS011;6249;52.128;9.986;2023-05-07T09:43:18;18.03;;;12.97;;
12369;SDS011;6249;52.128;9.986;2023-05-07T09:46:39;19.97;;;13.80;;
12369;SDS011;6249;52.128;9.986;2023-05-07T09:50:08;17.07;;;12.90;;
12369;SDS011;6249;52.128;9.986;2023-05-07T09:53:34;21.10;;;14.23;;
12369;SDS011;6249;52.128;9.986;2023-05-07T09:56:55;19.63;;;14.00;;
12369;SDS011;6249;52.128;9.986;2023-05-07T10:00:17;20.23;;;13.60;;
12369;SDS011;6249;52.128;9.986;2023-05-07T10:03:42;19.70;;;13.93;;
12369;SDS011;6249;52.128;9.986;2023-05-07T10:07:04;21.27;;;14.80;;
12369;SDS011;6249;52.128;9.986;2023-05-07T10:10:27;18.60;;;14.20;;
12369;SDS011;6249;52.128;9.986;2023-05-07T10:13:50;22.53;;;15.33;;
12369;SDS011;6249;52.128;9.986;2023-05-07T10:17:12;20.67;;;14.40;;
12369;SDS011;6249;52.128;9.986;2023-05-07T10:20:36;17.00;;;12.10;;
12369;SDS011;6249;52.128;9.986;2023-05-07T10:24:03;20.50;;;14.10;;
12369;SDS011;6249;52.128;9.986;2023-05-07T10:27:33;17.47;;;12.07;;
12369;SDS011;6249;52.128;9.986;2023-05-07T10:34:54;17.07;;;12.30;;
12369;SDS011;6249;52.128;9.986;2023-05-07T10:38:20;18.03;;;13.00;;
12369;SDS011;6249;52.128;9.986;2023-05-07T10:41:40;22.70;;;11.97;;
12369;SDS011;6249;52.128;9.986;2023-05-07T10:45:13;16.47;;;12.10;;
12369;SDS011;6249;52.128;9.986;2023-05-07T10:48:38;19.90;;;11.83;;
12369;SDS011;6249;52.128;9.986;2023-05-07T10:52:30;17.30;;;12.30;;
12369;SDS011;6249;52.128;9.986;2023-05-07T10:55:51;15.10;;;11.23;;
12369;SDS011;6249;52.128;9.986;2023-05-07T10:59:31;21.20;;;10.97;;
12369;SDS011;6249;52.128;9.986;2023-05-07T11:06:24;13.83;;;10.67;;
12369;SDS011;6249;52.128;9.986;2023-05-07T11:13:13;12.97;;;9.90;;
12369;SDS011;6249;52.128;9.986;2023-05-07T11:16:39;13.70;;;10.07;;
12369;SDS011;6249;52.128;9.986;2023-05-07T11:20:05;14.30;;;10.20;;
12369;SDS011;6249;52.128;9.986;2023-05-07T11:26:59;14.90;;;10.77;;
12369;SDS011;6249;52.128;9.986;2023-05-07T11:30:23;12.40;;;10.20;;
12369;SDS011;6249;52.128;9.986;2023-05-07T11:33:44;11.97;;;9.60;;
12369;SDS011;6249;52.128;9.986;2023-05-07T11:37:04;12.00;;;9.27;;
12369;SDS011;6249;52.128;9.986;2023-05-07T11:40:25;13.17;;;9.90;;
12369;SDS011;6249;52.128;9.986;2023-05-07T11:43:56;13.10;;;9.00;;
12369;SDS011;6249;52.128;9.986;2023-05-07T11:47:18;11.20;;;8.80;;
12369;SDS011;6249;52.128;9.986;2023-05-07T11:50:52;10.20;;;7.43;;
12369;SDS011;6249;52.128;9.986;2023-05-07T11:54:17;10.70;;;7.90;;
12369;SDS011;6249;52.128;9.986;2023-05-07T11:57:40;10.40;;;7.43;;
12369;SDS011;6249;52.128;9.986;2023-05-07T12:01:06;9.40;;;7.60;;
12369;SDS011;6249;52.128;9.986;2023-05-07T12:04:31;10.40;;;8.03;;
12369;SDS011;6249;52.128;9.986;2023-05-07T12:07:55;11.63;;;7.10;;
12369;SDS011;6249;52.128;9.986;2023-05-07T12:11:22;8.67;;;6.77;;
12369;SDS011;6249;52.128;9.986;2023-05-07T12:14:45;9.53;;;7.23;;
12369;SDS011;6249;52.128;9.986;2023-05-07T12:18:11;9.80;;;7.43;;
12369;SDS011;6249;52.128;9.986;2023-05-07T12:21:32;9.30;;;6.93;;
12369;SDS011;6249;52.128;9.986;2023-05-07T12:24:57;9.37;;;7.20;;
12369;SDS011;6249;52.128;9.986;2023-05-07T12:28:18;10.00;;;8.10;;
12369;SDS011;6249;52.128;9.986;2023-05-07T12:31:42;11.27;;;7.47;;
12369;SDS011;6249;52.128;9.986;2023-05-07T12:35:03;11.00;;;7.73;;
12369;SDS011;6249;52.128;9.986;2023-05-07T12:38:32;9.67;;;7.60;;
12369;SDS011;6249;52.128;9.986;2023-05-07T12:41:55;10.63;;;8.20;;
12369;SDS011;6249;52.128;9.986;2023-05-07T12:45:18;9.80;;;7.87;;
12369;SDS011;6249;52.128;9.986;2023-05-07T12:48:43;9.80;;;8.10;;
12369;SDS011;6249;52.128;9.986;2023-05-07T12:52:05;10.40;;;7.60;;
12369;SDS011;6249;52.128;9.986;2023-05-07T12:55:31;10.83;;;8.53;;
12369;SDS011;6249;52.128;9.986;2023-05-07T12:58:52;10.97;;;8.40;;
12369;SDS011;6249;52.128;9.986;2023-05-07T13:02:17;12.17;;;10.17;;
12369;SDS011;6249;52.128;9.986;2023-05-07T13:05:38;10.60;;;9.17;;
12369;SDS011;6249;52.128;9.986;2023-05-07T13:08:59;9.17;;;8.17;;
12369;SDS011;6249;52.128;9.986;2023-05-07T13:12:19;9.20;;;7.63;;
12369;SDS011;6249;52.128;9.986;2023-05-07T13:15:40;10.17;;;7.80;;
12369;SDS011;6249;52.128;9.986;2023-05-07T13:19:01;10.27;;;8.73;;
12369;SDS011;6249;52.128;9.986;2023-05-07T13:22:24;12.17;;;8.30;;
12369;SDS011;6249;52.128;9.986;2023-05-07T13:25:44;10.50;;;9.40;;
12369;SDS011;6249;52.128;9.986;2023-05-07T13:29:07;12.40;;;8.53;;
12369;SDS011;6249;52.128;9.986;2023-05-07T13:32:28;12.70;;;8.40;;
12369;SDS011;6249;52.128;9.986;2023-05-07T13:35:49;11.07;;;8.70;;
12369;SDS011;6249;52.128;9.986;2023-05-07T13:39:10;8.97;;;7.60;;
12369;SDS011;6249;52.128;9.986;2023-05-07T13:42:30;8.57;;;7.67;;
12369;SDS011;6249;52.128;9.986;2023-05-07T13:45:56;14.50;;;8.90;;
12369;SDS011;6249;52.128;9.986;2023-05-07T13:49:19;13.93;;;8.90;;
12369;SDS011;6249;52.128;9.986;2023-05-07T13:52:44;10.80;;;8.37;;
12369;SDS011;6249;52.128;9.986;2023-05-07T13:56:11;10.00;;;7.80;;
12369;SDS011;6249;52.128;9.986;2023-05-07T13:59:34;10.60;;;8.60;;
12369;SDS011;6249;52.128;9.986;2023-05-07T14:02:57;11.30;;;9.07;;
12369;SDS011;6249;52.128;9.986;2023-05-07T14:06:20;10.80;;;8.70;;
12369;SDS011;6249;52.128;9.986;2023-05-07T14:09:45;10.60;;;8.17;;
12369;SDS011;6249;52.128;9.986;2023-05-07T14:13:06;10.87;;;8.87;;
12369;SDS011;6249;52.128;9.986;2023-05-07T14:16:26;13.50;;;9.50;;
12369;SDS011;6249;52.128;9.986;2023-05-07T14:19:47;10.83;;;8.90;;
12369;SDS011;6249;52.128;9.986;2023-05-07T14:23:10;11.90;;;9.57;;
12369;SDS011;6249;52.128;9.986;2023-05-07T14:26:33;12.03;;;9.50;;
12369;SDS011;6249;52.128;9.986;2023-05-07T14:29:54;12.60;;;9.80;;
12369;SDS011;6249;52.128;9.986;2023-05-07T14:33:19;18.73;;;10.00;;
12369;SDS011;6249;52.128;9.986;2023-05-07T14:36:39;13.77;;;10.27;;
12369;SDS011;6249;52.128;9.986;2023-05-07T14:40:00;12.67;;;10.27;;
12369;SDS011;6249;52.128;9.986;2023-05-07T14:43:21;12.53;;;9.93;;
12369;SDS011;6249;52.128;9.986;2023-05-07T14:46:42;14.03;;;9.50;;
12369;SDS011;6249;52.128;9.986;2023-05-07T14:50:02;13.17;;;10.27;;
12369;SDS011;6249;52.128;9.986;2023-05-07T14:53:26;13.70;;;9.57;;
12369;SDS011;6249;52.128;9.986;2023-05-07T14:56:46;14.13;;;11.17;;
12369;SDS011;6249;52.128;9.986;2023-05-07T15:00:07;11.00;;;9.20;;
12369;SDS011;6249;52.128;9.986;2023-05-07T15:03:31;13.40;;;9.77;;
12369;SDS011;6249;52.128;9.986;2023-05-07T15:06:51;12.30;;;9.43;;
12369;SDS011;6249;52.128;9.986;2023-05-07T15:10:15;13.60;;;10.40;;
12369;SDS011;6249;52.128;9.986;2023-05-07T15:13:36;12.30;;;10.10;;
12369;SDS011;6249;52.128;9.986;2023-05-07T15:16:59;13.80;;;9.63;;
12369;SDS011;6249;52.128;9.986;2023-05-07T15:20:20;10.83;;;9.70;;
12369;SDS011;6249;52.128;9.986;2023-05-07T15:23:43;14.23;;;11.40;;
12369;SDS011;6249;52.128;9.986;2023-05-07T15:27:04;11.70;;;9.30;;
12369;SDS011;6249;52.128;9.986;2023-05-07T15:30:27;13.30;;;11.10;;
12369;SDS011;6249;52.128;9.986;2023-05-07T15:33:50;13.30;;;11.20;;
12369;SDS011;6249;52.128;9.986;2023-05-07T15:37:16;11.53;;;8.70;;
12369;SDS011;6249;52.128;9.986;2023-05-07T15:40:39;12.43;;;10.37;;
12369;SDS011;6249;52.128;9.986;2023-05-07T15:44:02;10.90;;;9.70;;
12369;SDS011;6249;52.128;9.986;2023-05-07T15:47:23;13.57;;;10.53;;
12369;SDS011;6249;52.128;9.986;2023-05-07T15:50:44;13.60;;;11.50;;
12369;SDS011;6249;52.128;9.986;2023-05-07T15:54:08;13.10;;;10.30;;
12369;SDS011;6249;52.128;9.986;2023-05-07T15:57:28;11.80;;;10.47;;
12369;SDS011;6249;52.128;9.986;2023-05-07T16:00:51;14.23;;;10.90;;
12369;SDS011;6249;52.128;9.986;2023-05-07T16:04:12;15.87;;;10.40;;
12369;SDS011;6249;52.128;9.986;2023-05-07T16:07:35;13.00;;;10.60;;
12369;SDS011;6249;52.128;9.986;2023-05-07T16:10:58;12.77;;;11.37;;
12369;SDS011;6249;52.128;9.986;2023-05-07T16:14:21;13.30;;;10.20;;
12369;SDS011;6249;52.128;9.986;2023-05-07T16:17:44;15.43;;;11.43;;
12369;SDS011;6249;52.128;9.986;2023-05-07T16:21:10;12.40;;;10.00;;
12369;SDS011;6249;52.128;9.986;2023-05-07T16:24:31;12.70;;;10.00;;
12369;SDS011;6249;52.128;9.986;2023-05-07T16:27:54;12.13;;;10.23;;
12369;SDS011;6249;52.128;9.986;2023-05-07T16:31:20;12.23;;;10.30;;
12369;SDS011;6249;52.128;9.986;2023-05-07T16:34:41;13.03;;;9.23;;
12369;SDS011;6249;52.128;9.986;2023-05-07T16:38:02;13.07;;;9.47;;
12369;SDS011;6249;52.128;9.986;2023-05-07T16:41:31;12.67;;;10.17;;
12369;SDS011;6249;52.128;9.986;2023-05-07T16:44:52;14.20;;;10.43;;
12369;SDS011;6249;52.128;9.986;2023-05-07T16:48:15;13.50;;;9.87;;
12369;SDS011;6249;52.128;9.986;2023-05-07T16:51:38;12.87;;;10.03;;
12369;SDS011;6249;52.128;9.986;2023-05-07T16:55:02;13.50;;;10.30;;
12369;SDS011;6249;52.128;9.986;2023-05-07T16:58:23;13.13;;;10.57;;
12369;SDS011;6249;52.128;9.986;2023-05-07T17:01:43;18.47;;;10.47;;
12369;SDS011;6249;52.128;9.986;2023-05-07T17:05:04;13.23;;;10.13;;
12369;SDS011;6249;52.128;9.986;2023-05-07T17:08:25;11.83;;;9.17;;
12369;SDS011;6249;52.128;9.986;2023-05-07T17:11:46;13.13;;;9.47;;
12369;SDS011;6249;52.128;9.986;2023-05-07T17:15:06;14.07;;;9.77;;
12369;SDS011;6249;52.128;9.986;2023-05-07T17:18:30;14.60;;;11.13;;
12369;SDS011;6249;52.128;9.986;2023-05-07T17:21:50;12.73;;;9.27;;
12369;SDS011;6249;52.128;9.986;2023-05-07T17:25:11;12.40;;;9.67;;
12369;SDS011;6249;52.128;9.986;2023-05-07T17:28:34;11.90;;;9.23;;
12369;SDS011;6249;52.128;9.986;2023-05-07T17:31:55;13.30;;;9.10;;
12369;SDS011;6249;52.128;9.986;2023-05-07T17:35:18;12.80;;;9.23;;
12369;SDS011;6249;52.128;9.986;2023-05-07T17:38:38;14.43;;;10.10;;
12369;SDS011;6249;52.128;9.986;2023-05-07T17:42:00;13.50;;;9.90;;
12369;SDS011;6249;52.128;9.986;2023-05-07T17:45:21;11.40;;;9.00;;
12369;SDS011;6249;52.128;9.986;2023-05-07T17:48:41;11.20;;;8.80;;
12369;SDS011;6249;52.128;9.986;2023-05-07T17:52:02;16.20;;;9.30;;
12369;SDS011;6249;52.128;9.986;2023-05-07T17:55:25;11.03;;;8.10;;
12369;SDS011;6249;52.128;9.986;2023-05-07T17:58:46;15.40;;;8.77;;
12369;SDS011;6249;52.128;9.986;2023-05-07T18:02:06;12.40;;;9.20;;
12369;SDS011;6249;52.128;9.986;2023-05-07T18:05:27;12.50;;;8.80;;
12369;SDS011;6249;52.128;9.986;2023-05-07T18:08:48;13.50;;;8.67;;
12369;SDS011;6249;52.128;9.986;2023-05-07T18:12:13;11.07;;;8.23;;
12369;SDS011;6249;52.128;9.986;2023-05-07T18:15:33;11.87;;;8.13;;
12369;SDS011;6249;52.128;9.986;2023-05-07T18:18:54;12.00;;;8.30;;
12369;SDS011;6249;52.128;9.986;2023-05-07T18:22:15;10.93;;;8.73;;
12369;SDS011;6249;52.128;9.986;2023-05-07T18:25:35;12.07;;;8.50;;
12369;SDS011;6249;52.128;9.986;2023-05-07T18:28:56;13.20;;;8.57;;
12369;SDS011;6249;52.128;9.986;2023-05-07T18:32:16;10.97;;;7.87;;
12369;SDS011;6249;52.128;9.986;2023-05-07T18:35:40;13.40;;;9.23;;
12369;SDS011;6249;52.128;9.986;2023-05-07T18:39:01;11.60;;;8.47;;
12369;SDS011;6249;52.128;9.986;2023-05-07T18:42:22;10.27;;;7.70;;
12369;SDS011;6249;52.128;9.986;2023-05-07T18:45:45;13.90;;;7.93;;
12369;SDS011;6249;52.128;9.986;2023-05-07T18:49:07;11.63;;;8.00;;
12369;SDS011;6249;52.128;9.986;2023-05-07T18:52:28;11.93;;;7.93;;
12369;SDS011;6249;52.128;9.986;2023-05-07T18:55:49;12.03;;;7.70;;
12369;SDS011;6249;52.128;9.986;2023-05-07T18:59:13;12.20;;;8.60;;
12369;SDS011;6249;52.128;9.986;2023-05-07T19:02:33;17.20;;;7.40;;
12369;SDS011;6249;52.128;9.986;2023-05-07T19:05:54;10.77;;;7.93;;
12369;SDS011;6249;52.128;9.986;2023-05-07T19:09:15;11.13;;;7.47;;
12369;SDS011;6249;52.128;9.986;2023-05-07T19:12:36;9.90;;;7.30;;
12369;SDS011;6249;52.128;9.986;2023-05-07T19:15:56;11.87;;;8.57;;
12369;SDS011;6249;52.128;9.986;2023-05-07T19:19:17;13.57;;;7.80;;
12369;SDS011;6249;52.128;9.986;2023-05-07T19:22:38;10.53;;;7.63;;
12369;SDS011;6249;52.128;9.986;2023-05-07T19:25:58;9.37;;;6.87;;
12369;SDS011;6249;52.128;9.986;2023-05-07T19:29:21;11.90;;;8.23;;
12369;SDS011;6249;52.128;9.986;2023-05-07T19:32:42;10.73;;;7.70;;
12369;SDS011;6249;52.128;9.986;2023-05-07T19:36:03;12.20;;;8.10;;
12369;SDS011;6249;52.128;9.986;2023-05-07T19:39:23;13.80;;;8.20;;
12369;SDS011;6249;52.128;9.986;2023-05-07T19:42:44;10.60;;;7.50;;
12369;SDS011;6249;52.128;9.986;2023-05-07T19:46:08;10.27;;;7.47;;
12369;SDS011;6249;52.128;9.986;2023-05-07T19:49:29;10.83;;;7.67;;
12369;SDS011;6249;52.128;9.986;2023-05-07T19:52:49;12.17;;;8.37;;
12369;SDS011;6249;52.128;9.986;2023-05-07T19:56:15;9.97;;;7.00;;
12369;SDS011;6249;52.128;9.986;2023-05-07T19:59:35;10.40;;;7.20;;
12369;SDS011;6249;52.128;9.986;2023-05-07T20:02:59;12.23;;;7.43;;
12369;SDS011;6249;52.128;9.986;2023-05-07T20:06:19;9.93;;;6.90;;
12369;SDS011;6249;52.128;9.986;2023-05-07T20:09:44;10.40;;;7.30;;
12369;SDS011;6249;52.128;9.986;2023-05-07T20:13:05;10.37;;;6.63;;
12369;SDS011;6249;52.128;9.986;2023-05-07T20:16:30;8.53;;;6.07;;
12369;SDS011;6249;52.128;9.986;2023-05-07T20:19:53;9.63;;;6.37;;
12369;SDS011;6249;52.128;9.986;2023-05-07T20:23:14;11.03;;;5.90;;